CheckWX is a tool to help pilots better visualize weather data.  It is not intended as a substitute for an official pre-flight weather briefing.

23:36:24 UTC

KSYF METAR
Cheyenne County Municipal Airport
St Francis, Kansas, USA
Current

21 mins ago

KSYF 062315Z AUTO 14010G16KT 10SM CLR 34/09 A3000 RMK AO2 T03350088 PWINO
Observed
Jul-6 @ 23:15 UTC
Wind
  • 140° at 10 KTS
  • Gusting to 16 KTS
Visibility
10 SM
Flight Rules
VFR
Cloud Levels
  • Clear skies
Temperature
34°C / 93°F
Dewpoint
C / 48°F
Humidity
21%
Altimeter
30" Hg
Pressure
1015.92 hPa
Previous

41 mins ago

KSYF 062255Z AUTO 15010G15KT 10SM CLR 33/08 A3001 RMK AO2 T03340083 PWINO
Observed
Jul-6 @ 22:55 UTC
Wind
  • 150° at 10 KTS
  • Gusting to 15 KTS
Visibility
10 SM
Flight Rules
VFR
Cloud Levels
  • Clear skies
Temperature
33°C / 91°F
Dewpoint
C / 46°F
Humidity
21%
Altimeter
30.01" Hg
Pressure
1016.22 hPa
Previous

1 hour ago

KSYF 062235Z AUTO 16008KT 10SM CLR 33/09 A3001 RMK AO2 T03330087 PWINO
Observed
Jul-6 @ 22:35 UTC
Wind
  • 160° at 8 KTS
Visibility
10 SM
Flight Rules
VFR
Cloud Levels
  • Clear skies
Temperature
33°C / 91°F
Dewpoint
C / 48°F
Humidity
23%
Altimeter
30.01" Hg
Pressure
1016.22 hPa